sensor_id;sensor_type;location;lat;lon;timestamp;P1;durP1;ratioP1;P2;durP2;ratioP2
5795;SDS011;2924;51.458;7.046;2023-04-06T00:00:18;16.10;;;7.37;;
5795;SDS011;2924;51.458;7.046;2023-04-06T00:02:44;10.37;;;5.97;;
5795;SDS011;2924;51.458;7.046;2023-04-06T00:05:09;9.63;;;6.60;;
5795;SDS011;2924;51.458;7.046;2023-04-06T00:07:35;13.43;;;6.10;;
5795;SDS011;2924;51.458;7.046;2023-04-06T00:10:01;13.90;;;6.50;;
5795;SDS011;2924;51.458;7.046;2023-04-06T00:12:27;8.37;;;6.23;;
5795;SDS011;2924;51.458;7.046;2023-04-06T00:14:52;10.33;;;7.00;;
5795;SDS011;2924;51.458;7.046;2023-04-06T00:17:18;20.30;;;6.00;;
5795;SDS011;2924;51.458;7.046;2023-04-06T00:19:43;9.27;;;6.67;;
5795;SDS011;2924;51.458;7.046;2023-04-06T00:22:09;10.23;;;6.27;;
5795;SDS011;2924;51.458;7.046;2023-04-06T00:24:34;16.17;;;6.30;;
5795;SDS011;2924;51.458;7.046;2023-04-06T00:27:00;14.60;;;7.67;;
5795;SDS011;2924;51.458;7.046;2023-04-06T00:29:26;9.73;;;6.60;;
5795;SDS011;2924;51.458;7.046;2023-04-06T00:31:51;11.57;;;6.67;;
5795;SDS011;2924;51.458;7.046;2023-04-06T00:34:17;10.97;;;7.37;;
5795;SDS011;2924;51.458;7.046;2023-04-06T00:36:42;8.70;;;6.13;;
5795;SDS011;2924;51.458;7.046;2023-04-06T00:39:08;19.50;;;7.00;;
5795;SDS011;2924;51.458;7.046;2023-04-06T00:41:34;11.23;;;6.80;;
5795;SDS011;2924;51.458;7.046;2023-04-06T00:44:00;9.77;;;7.00;;
5795;SDS011;2924;51.458;7.046;2023-04-06T00:46:25;12.53;;;6.70;;
5795;SDS011;2924;51.458;7.046;2023-04-06T00:48:51;13.50;;;8.63;;
5795;SDS011;2924;51.458;7.046;2023-04-06T00:51:16;11.63;;;6.47;;
5795;SDS011;2924;51.458;7.046;2023-04-06T00:53:42;12.73;;;7.40;;
5795;SDS011;2924;51.458;7.046;2023-04-06T00:56:07;14.57;;;7.83;;
5795;SDS011;2924;51.458;7.046;2023-04-06T00:58:34;9.63;;;7.00;;
5795;SDS011;2924;51.458;7.046;2023-04-06T01:01:03;10.97;;;6.67;;
5795;SDS011;2924;51.458;7.046;2023-04-06T01:03:29;10.20;;;7.40;;
5795;SDS011;2924;51.458;7.046;2023-04-06T01:05:54;12.10;;;7.70;;
5795;SDS011;2924;51.458;7.046;2023-04-06T01:08:23;13.17;;;7.53;;
5795;SDS011;2924;51.458;7.046;2023-04-06T01:10:49;10.17;;;7.30;;
5795;SDS011;2924;51.458;7.046;2023-04-06T01:13:15;24.50;;;7.13;;
5795;SDS011;2924;51.458;7.046;2023-04-06T01:15:40;9.60;;;6.53;;
5795;SDS011;2924;51.458;7.046;2023-04-06T01:18:07;7.77;;;6.47;;
5795;SDS011;2924;51.458;7.046;2023-04-06T01:20:35;11.43;;;7.37;;
5795;SDS011;2924;51.458;7.046;2023-04-06T01:23:01;8.77;;;6.60;;
5795;SDS011;2924;51.458;7.046;2023-04-06T01:25:26;9.47;;;6.63;;
5795;SDS011;2924;51.458;7.046;2023-04-06T01:27:52;10.67;;;7.50;;
5795;SDS011;2924;51.458;7.046;2023-04-06T01:30:18;9.03;;;7.03;;
5795;SDS011;2924;51.458;7.046;2023-04-06T01:32:43;12.63;;;7.13;;
5795;SDS011;2924;51.458;7.046;2023-04-06T01:35:10;11.73;;;6.60;;
5795;SDS011;2924;51.458;7.046;2023-04-06T01:37:35;9.63;;;6.07;;
5795;SDS011;2924;51.458;7.046;2023-04-06T01:40:02;10.07;;;6.90;;
5795;SDS011;2924;51.458;7.046;2023-04-06T01:42:28;9.77;;;6.83;;
5795;SDS011;2924;51.458;7.046;2023-04-06T01:44:53;8.87;;;6.53;;
5795;SDS011;2924;51.458;7.046;2023-04-06T01:47:19;11.07;;;6.40;;
5795;SDS011;2924;51.458;7.046;2023-04-06T01:49:45;8.53;;;6.93;;
5795;SDS011;2924;51.458;7.046;2023-04-06T01:52:10;12.77;;;7.27;;
5795;SDS011;2924;51.458;7.046;2023-04-06T01:54:36;10.57;;;5.80;;
5795;SDS011;2924;51.458;7.046;2023-04-06T01:57:01;11.27;;;5.90;;
5795;SDS011;2924;51.458;7.046;2023-04-06T01:59:27;11.87;;;6.30;;
5795;SDS011;2924;51.458;7.046;2023-04-06T02:01:52;9.10;;;6.37;;
5795;SDS011;2924;51.458;7.046;2023-04-06T02:04:18;16.50;;;6.90;;
5795;SDS011;2924;51.458;7.046;2023-04-06T02:06:43;19.13;;;6.53;;
5795;SDS011;2924;51.458;7.046;2023-04-06T02:09:09;6.90;;;5.27;;
5795;SDS011;2924;51.458;7.046;2023-04-06T02:11:34;10.03;;;6.47;;
5795;SDS011;2924;51.458;7.046;2023-04-06T02:14:00;10.23;;;5.67;;
5795;SDS011;2924;51.458;7.046;2023-04-06T02:16:26;12.03;;;6.70;;
5795;SDS011;2924;51.458;7.046;2023-04-06T02:18:51;11.60;;;6.63;;
5795;SDS011;2924;51.458;7.046;2023-04-06T02:21:17;16.93;;;6.07;;
5795;SDS011;2924;51.458;7.046;2023-04-06T02:23:45;8.97;;;6.33;;
5795;SDS011;2924;51.458;7.046;2023-04-06T02:26:11;12.53;;;6.90;;
5795;SDS011;2924;51.458;7.046;2023-04-06T02:28:37;14.83;;;6.67;;
5795;SDS011;2924;51.458;7.046;2023-04-06T02:31:03;8.20;;;5.73;;
5795;SDS011;2924;51.458;7.046;2023-04-06T02:33:28;10.10;;;6.20;;
5795;SDS011;2924;51.458;7.046;2023-04-06T02:35:54;9.07;;;5.70;;
5795;SDS011;2924;51.458;7.046;2023-04-06T02:38:19;12.67;;;7.50;;
5795;SDS011;2924;51.458;7.046;2023-04-06T02:40:45;9.90;;;5.90;;
5795;SDS011;2924;51.458;7.046;2023-04-06T02:43:11;8.50;;;7.07;;
5795;SDS011;2924;51.458;7.046;2023-04-06T02:45:36;11.70;;;6.50;;
5795;SDS011;2924;51.458;7.046;2023-04-06T02:48:02;6.63;;;5.20;;
5795;SDS011;2924;51.458;7.046;2023-04-06T02:50:27;17.13;;;6.17;;
5795;SDS011;2924;51.458;7.046;2023-04-06T02:52:53;10.57;;;6.90;;
5795;SDS011;2924;51.458;7.046;2023-04-06T02:55:18;10.00;;;6.87;;
5795;SDS011;2924;51.458;7.046;2023-04-06T02:57:44;9.40;;;6.43;;
5795;SDS011;2924;51.458;7.046;2023-04-06T03:00:10;9.73;;;6.07;;
5795;SDS011;2924;51.458;7.046;2023-04-06T03:02:36;18.57;;;7.20;;
5795;SDS011;2924;51.458;7.046;2023-04-06T03:05:02;15.77;;;6.33;;
5795;SDS011;2924;51.458;7.046;2023-04-06T03:07:28;10.13;;;6.77;;
5795;SDS011;2924;51.458;7.046;2023-04-06T03:09:53;12.70;;;6.37;;
5795;SDS011;2924;51.458;7.046;2023-04-06T03:12:19;9.80;;;6.50;;
5795;SDS011;2924;51.458;7.046;2023-04-06T03:14:45;8.53;;;6.20;;
5795;SDS011;2924;51.458;7.046;2023-04-06T03:17:11;12.50;;;7.30;;
5795;SDS011;2924;51.458;7.046;2023-04-06T03:19:36;17.17;;;8.10;;
5795;SDS011;2924;51.458;7.046;2023-04-06T03:22:02;22.00;;;8.80;;
5795;SDS011;2924;51.458;7.046;2023-04-06T03:24:27;15.67;;;7.80;;
5795;SDS011;2924;51.458;7.046;2023-04-06T03:26:53;14.50;;;7.40;;
5795;SDS011;2924;51.458;7.046;2023-04-06T03:29:18;8.83;;;6.60;;
5795;SDS011;2924;51.458;7.046;2023-04-06T03:31:44;10.27;;;6.90;;
5795;SDS011;2924;51.458;7.046;2023-04-06T03:34:10;8.17;;;6.23;;
5795;SDS011;2924;51.458;7.046;2023-04-06T03:36:35;10.20;;;6.57;;
5795;SDS011;2924;51.458;7.046;2023-04-06T03:39:01;9.80;;;6.33;;
5795;SDS011;2924;51.458;7.046;2023-04-06T03:41:26;11.93;;;6.30;;
5795;SDS011;2924;51.458;7.046;2023-04-06T03:43:52;10.83;;;6.70;;
5795;SDS011;2924;51.458;7.046;2023-04-06T03:46:18;14.90;;;6.20;;
5795;SDS011;2924;51.458;7.046;2023-04-06T03:48:45;10.03;;;5.90;;
5795;SDS011;2924;51.458;7.046;2023-04-06T03:51:12;10.13;;;6.70;;
5795;SDS011;2924;51.458;7.046;2023-04-06T03:53:38;10.53;;;6.40;;
5795;SDS011;2924;51.458;7.046;2023-04-06T03:56:04;10.80;;;7.03;;
5795;SDS011;2924;51.458;7.046;2023-04-06T03:58:30;9.30;;;6.50;;
5795;SDS011;2924;51.458;7.046;2023-04-06T04:00:55;7.53;;;6.00;;
5795;SDS011;2924;51.458;7.046;2023-04-06T04:03:21;9.87;;;6.27;;
5795;SDS011;2924;51.458;7.046;2023-04-06T04:05:48;11.20;;;6.60;;
5795;SDS011;2924;51.458;7.046;2023-04-06T04:08:15;9.47;;;6.57;;
5795;SDS011;2924;51.458;7.046;2023-04-06T04:10:40;10.87;;;6.93;;
5795;SDS011;2924;51.458;7.046;2023-04-06T04:13:06;11.00;;;6.80;;
5795;SDS011;2924;51.458;7.046;2023-04-06T04:15:32;9.80;;;5.90;;
5795;SDS011;2924;51.458;7.046;2023-04-06T04:17:57;15.80;;;6.10;;
5795;SDS011;2924;51.458;7.046;2023-04-06T04:20:23;8.87;;;6.43;;
5795;SDS011;2924;51.458;7.046;2023-04-06T04:22:48;7.03;;;5.33;;
5795;SDS011;2924;51.458;7.046;2023-04-06T04:25:14;8.60;;;6.13;;
5795;SDS011;2924;51.458;7.046;2023-04-06T04:27:39;8.10;;;6.10;;
5795;SDS011;2924;51.458;7.046;2023-04-06T04:30:05;7.30;;;6.07;;
5795;SDS011;2924;51.458;7.046;2023-04-06T04:32:31;7.50;;;5.87;;
5795;SDS011;2924;51.458;7.046;2023-04-06T04:34:57;9.83;;;6.03;;
5795;SDS011;2924;51.458;7.046;2023-04-06T04:37:22;9.97;;;5.60;;
5795;SDS011;2924;51.458;7.046;2023-04-06T04:39:48;12.97;;;6.80;;
5795;SDS011;2924;51.458;7.046;2023-04-06T04:42:13;13.23;;;6.77;;
5795;SDS011;2924;51.458;7.046;2023-04-06T04:44:39;10.53;;;5.50;;
5795;SDS011;2924;51.458;7.046;2023-04-06T04:47:05;11.70;;;6.43;;
5795;SDS011;2924;51.458;7.046;2023-04-06T04:49:30;9.87;;;5.10;;
5795;SDS011;2924;51.458;7.046;2023-04-06T04:51:56;8.27;;;5.70;;
5795;SDS011;2924;51.458;7.046;2023-04-06T04:54:21;14.77;;;6.87;;
5795;SDS011;2924;51.458;7.046;2023-04-06T04:56:47;11.93;;;7.10;;
5795;SDS011;2924;51.458;7.046;2023-04-06T04:59:13;8.00;;;5.00;;
5795;SDS011;2924;51.458;7.046;2023-04-06T05:01:38;9.00;;;5.90;;
5795;SDS011;2924;51.458;7.046;2023-04-06T05:04:04;16.30;;;5.23;;
5795;SDS011;2924;51.458;7.046;2023-04-06T05:06:30;8.23;;;4.77;;
5795;SDS011;2924;51.458;7.046;2023-04-06T05:08:55;13.37;;;5.60;;
5795;SDS011;2924;51.458;7.046;2023-04-06T05:11:21;7.93;;;5.93;;
5795;SDS011;2924;51.458;7.046;2023-04-06T05:13:47;7.00;;;5.30;;
5795;SDS011;2924;51.458;7.046;2023-04-06T05:16:12;9.80;;;5.73;;
5795;SDS011;2924;51.458;7.046;2023-04-06T05:18:38;12.70;;;5.50;;
5795;SDS011;2924;51.458;7.046;2023-04-06T05:21:03;6.10;;;5.00;;
5795;SDS011;2924;51.458;7.046;2023-04-06T05:23:29;8.33;;;5.60;;
5795;SDS011;2924;51.458;7.046;2023-04-06T05:25:55;7.30;;;4.90;;
5795;SDS011;2924;51.458;7.046;2023-04-06T05:28:20;8.60;;;5.30;;
5795;SDS011;2924;51.458;7.046;2023-04-06T05:30:46;16.37;;;10.70;;
5795;SDS011;2924;51.458;7.046;2023-04-06T05:33:12;13.20;;;8.63;;
5795;SDS011;2924;51.458;7.046;2023-04-06T05:35:38;8.57;;;6.10;;
5795;SDS011;2924;51.458;7.046;2023-04-06T05:38:05;7.53;;;5.43;;
5795;SDS011;2924;51.458;7.046;2023-04-06T05:40:33;10.63;;;5.87;;
5795;SDS011;2924;51.458;7.046;2023-04-06T05:42:59;7.47;;;6.10;;
5795;SDS011;2924;51.458;7.046;2023-04-06T05:45:25;13.30;;;5.23;;
5795;SDS011;2924;51.458;7.046;2023-04-06T05:47:51;7.47;;;5.27;;
5795;SDS011;2924;51.458;7.046;2023-04-06T05:50:16;5.77;;;4.83;;
5795;SDS011;2924;51.458;7.046;2023-04-06T05:52:42;13.17;;;5.07;;
5795;SDS011;2924;51.458;7.046;2023-04-06T05:55:10;9.43;;;5.70;;
5795;SDS011;2924;51.458;7.046;2023-04-06T05:57:36;6.87;;;4.70;;
5795;SDS011;2924;51.458;7.046;2023-04-06T06:00:02;7.73;;;4.80;;
5795;SDS011;2924;51.458;7.046;2023-04-06T06:02:30;8.27;;;4.80;;
5795;SDS011;2924;51.458;7.046;2023-04-06T06:04:56;5.83;;;4.30;;
5795;SDS011;2924;51.458;7.046;2023-04-06T06:07:21;12.97;;;5.20;;
5795;SDS011;2924;51.458;7.046;2023-04-06T06:09:47;5.53;;;4.40;;
5795;SDS011;2924;51.458;7.046;2023-04-06T06:12:13;5.07;;;4.37;;
5795;SDS011;2924;51.458;7.046;2023-04-06T06:14:39;7.53;;;4.30;;
5795;SDS011;2924;51.458;7.046;2023-04-06T06:17:04;5.80;;;4.80;;
5795;SDS011;2924;51.458;7.046;2023-04-06T06:19:30;8.80;;;5.00;;
5795;SDS011;2924;51.458;7.046;2023-04-06T06:21:56;5.90;;;4.40;;
5795;SDS011;2924;51.458;7.046;2023-04-06T06:24:21;8.20;;;4.80;;
5795;SDS011;2924;51.458;7.046;2023-04-06T06:26:47;7.43;;;4.77;;
5795;SDS011;2924;51.458;7.046;2023-04-06T06:29:13;8.50;;;4.87;;
5795;SDS011;2924;51.458;7.046;2023-04-06T06:31:39;8.63;;;5.03;;
5795;SDS011;2924;51.458;7.046;2023-04-06T06:34:05;5.73;;;4.70;;
5795;SDS011;2924;51.458;7.046;2023-04-06T06:36:31;8.33;;;5.33;;
5795;SDS011;2924;51.458;7.046;2023-04-06T06:38:57;6.33;;;4.43;;
5795;SDS011;2924;51.458;7.046;2023-04-06T06:41:24;7.43;;;5.40;;
5795;SDS011;2924;51.458;7.046;2023-04-06T06:43:52;9.50;;;4.50;;
5795;SDS011;2924;51.458;7.046;2023-04-06T06:46:17;7.57;;;4.93;;
5795;SDS011;2924;51.458;7.046;2023-04-06T06:48:43;7.13;;;4.67;;
5795;SDS011;2924;51.458;7.046;2023-04-06T06:51:08;4.77;;;4.27;;
5795;SDS011;2924;51.458;7.046;2023-04-06T06:53:36;15.70;;;5.60;;
5795;SDS011;2924;51.458;7.046;2023-04-06T06:56:02;8.93;;;5.43;;
5795;SDS011;2924;51.458;7.046;2023-04-06T06:58:27;7.77;;;5.30;;
5795;SDS011;2924;51.458;7.046;2023-04-06T07:00:59;8.47;;;5.13;;
5795;SDS011;2924;51.458;7.046;2023-04-06T07:03:25;12.67;;;5.10;;
5795;SDS011;2924;51.458;7.046;2023-04-06T07:05:51;8.33;;;4.97;;
5795;SDS011;2924;51.458;7.046;2023-04-06T07:08:23;7.27;;;4.93;;
5795;SDS011;2924;51.458;7.046;2023-04-06T07:10:52;10.50;;;5.73;;
5795;SDS011;2924;51.458;7.046;2023-04-06T07:13:18;11.10;;;5.43;;
5795;SDS011;2924;51.458;7.046;2023-04-06T07:15:51;7.43;;;4.50;;
5795;SDS011;2924;51.458;7.046;2023-04-06T07:18:17;8.30;;;4.93;;
5795;SDS011;2924;51.458;7.046;2023-04-06T07:20:43;6.73;;;5.00;;
5795;SDS011;2924;51.458;7.046;2023-04-06T07:23:09;9.20;;;5.17;;
5795;SDS011;2924;51.458;7.046;2023-04-06T07:25:35;9.83;;;4.60;;
5795;SDS011;2924;51.458;7.046;2023-04-06T07:28:01;7.97;;;4.77;;
5795;SDS011;2924;51.458;7.046;2023-04-06T07:30:27;6.63;;;5.20;;
5795;SDS011;2924;51.458;7.046;2023-04-06T07:32:53;6.60;;;5.33;;
5795;SDS011;2924;51.458;7.046;2023-04-06T07:35:24;9.77;;;5.43;;
5795;SDS011;2924;51.458;7.046;2023-04-06T07:37:51;9.50;;;5.23;;
5795;SDS011;2924;51.458;7.046;2023-04-06T07:40:17;8.50;;;4.90;;
5795;SDS011;2924;51.458;7.046;2023-04-06T07:42:43;8.23;;;4.93;;
5795;SDS011;2924;51.458;7.046;2023-04-06T07:45:08;6.03;;;5.07;;
5795;SDS011;2924;51.458;7.046;2023-04-06T07:47:34;9.17;;;5.43;;
5795;SDS011;2924;51.458;7.046;2023-04-06T07:50:00;13.27;;;5.53;;
5795;SDS011;2924;51.458;7.046;2023-04-06T07:52:25;13.70;;;5.73;;
5795;SDS011;2924;51.458;7.046;2023-04-06T07:54:51;7.90;;;6.17;;
5795;SDS011;2924;51.458;7.046;2023-04-06T07:57:17;7.77;;;5.90;;
5795;SDS011;2924;51.458;7.046;2023-04-06T07:59:43;12.63;;;5.53;;
5795;SDS011;2924;51.458;7.046;2023-04-06T08:02:08;10.10;;;5.20;;
5795;SDS011;2924;51.458;7.046;2023-04-06T08:04:34;8.50;;;5.30;;
5795;SDS011;2924;51.458;7.046;2023-04-06T08:07:00;13.37;;;6.13;;
5795;SDS011;2924;51.458;7.046;2023-04-06T08:09:26;10.47;;;6.63;;
5795;SDS011;2924;51.458;7.046;2023-04-06T08:11:52;10.00;;;6.57;;
5795;SDS011;2924;51.458;7.046;2023-04-06T08:14:17;11.30;;;5.60;;
5795;SDS011;2924;51.458;7.046;2023-04-06T08:16:43;10.73;;;6.33;;
5795;SDS011;2924;51.458;7.046;2023-04-06T08:19:08;9.10;;;6.37;;
5795;SDS011;2924;51.458;7.046;2023-04-06T08:21:37;10.40;;;6.70;;
5795;SDS011;2924;51.458;7.046;2023-04-06T08:24:02;9.60;;;6.70;;
5795;SDS011;2924;51.458;7.046;2023-04-06T08:26:28;9.83;;;7.60;;
5795;SDS011;2924;51.458;7.046;2023-04-06T08:28:54;11.87;;;7.10;;
5795;SDS011;2924;51.458;7.046;2023-04-06T08:31:20;12.97;;;7.10;;
5795;SDS011;2924;51.458;7.046;2023-04-06T08:33:45;13.13;;;6.27;;
5795;SDS011;2924;51.458;7.046;2023-04-06T08:36:12;11.10;;;6.60;;
5795;SDS011;2924;51.458;7.046;2023-04-06T08:38:38;13.43;;;6.83;;
5795;SDS011;2924;51.458;7.046;2023-04-06T08:41:09;17.07;;;7.40;;
5795;SDS011;2924;51.458;7.046;2023-04-06T08:43:37;9.27;;;6.93;;
5795;SDS011;2924;51.458;7.046;2023-04-06T08:46:23;15.23;;;8.70;;
5795;SDS011;2924;51.458;7.046;2023-04-06T08:48:55;11.47;;;8.03;;
5795;SDS011;2924;51.458;7.046;2023-04-06T08:51:22;14.60;;;8.20;;
5795;SDS011;2924;51.458;7.046;2023-04-06T08:53:51;12.47;;;8.37;;
5795;SDS011;2924;51.458;7.046;2023-04-06T08:56:19;16.20;;;8.70;;
5795;SDS011;2924;51.458;7.046;2023-04-06T08:58:46;16.47;;;7.77;;
5795;SDS011;2924;51.458;7.046;2023-04-06T09:01:13;10.73;;;7.77;;
5795;SDS011;2924;51.458;7.046;2023-04-06T09:03:41;11.93;;;8.07;;
5795;SDS011;2924;51.458;7.046;2023-04-06T09:06:08;14.07;;;7.90;;
5795;SDS011;2924;51.458;7.046;2023-04-06T09:08:35;12.57;;;8.60;;
5795;SDS011;2924;51.458;7.046;2023-04-06T09:11:05;18.40;;;8.13;;
5795;SDS011;2924;51.458;7.046;2023-04-06T09:13:31;13.30;;;9.47;;
5795;SDS011;2924;51.458;7.046;2023-04-06T09:16:04;12.70;;;7.63;;
5795;SDS011;2924;51.458;7.046;2023-04-06T09:18:31;13.07;;;8.23;;
5795;SDS011;2924;51.458;7.046;2023-04-06T09:21:02;10.53;;;8.10;;
5795;SDS011;2924;51.458;7.046;2023-04-06T09:23:29;12.07;;;7.87;;
5795;SDS011;2924;51.458;7.046;2023-04-06T09:26:05;17.80;;;8.00;;
5795;SDS011;2924;51.458;7.046;2023-04-06T09:28:47;15.93;;;9.40;;
5795;SDS011;2924;51.458;7.046;2023-04-06T09:31:14;21.20;;;9.60;;
5795;SDS011;2924;51.458;7.046;2023-04-06T09:33:41;15.00;;;9.77;;
5795;SDS011;2924;51.458;7.046;2023-04-06T09:36:09;15.87;;;9.70;;
5795;SDS011;2924;51.458;7.046;2023-04-06T09:38:38;18.20;;;10.70;;
5795;SDS011;2924;51.458;7.046;2023-04-06T09:41:20;16.43;;;11.03;;
5795;SDS011;2924;51.458;7.046;2023-04-06T09:46:40;17.30;;;11.57;;
5795;SDS011;2924;51.458;7.046;2023-04-06T09:49:10;19.13;;;12.17;;
5795;SDS011;2924;51.458;7.046;2023-04-06T09:51:40;17.40;;;11.60;;
5795;SDS011;2924;51.458;7.046;2023-04-06T09:54:10;16.80;;;11.47;;
5795;SDS011;2924;51.458;7.046;2023-04-06T09:57:26;16.80;;;10.57;;
5795;SDS011;2924;51.458;7.046;2023-04-06T10:04:56;23.83;;;11.43;;
5795;SDS011;2924;51.458;7.046;2023-04-06T10:07:46;25.27;;;11.40;;
5795;SDS011;2924;51.458;7.046;2023-04-06T10:10:15;15.53;;;10.60;;
5795;SDS011;2924;51.458;7.046;2023-04-06T10:12:41;16.50;;;10.73;;
5795;SDS011;2924;51.458;7.046;2023-04-06T10:15:09;19.03;;;11.50;;
5795;SDS011;2924;51.458;7.046;2023-04-06T10:17:35;16.43;;;11.20;;
5795;SDS011;2924;51.458;7.046;2023-04-06T10:20:09;17.90;;;11.30;;
5795;SDS011;2924;51.458;7.046;2023-04-06T10:25:15;18.20;;;11.30;;
5795;SDS011;2924;51.458;7.046;2023-04-06T10:27:41;17.23;;;11.80;;
5795;SDS011;2924;51.458;7.046;2023-04-06T10:30:07;16.53;;;10.90;;
5795;SDS011;2924;51.458;7.046;2023-04-06T10:32:36;18.73;;;12.17;;
5795;SDS011;2924;51.458;7.046;2023-04-06T10:35:06;19.93;;;11.40;;
5795;SDS011;2924;51.458;7.046;2023-04-06T10:37:49;17.70;;;11.70;;
5795;SDS011;2924;51.458;7.046;2023-04-06T10:40:20;17.77;;;10.80;;
5795;SDS011;2924;51.458;7.046;2023-04-06T10:42:48;17.97;;;11.17;;
5795;SDS011;2924;51.458;7.046;2023-04-06T10:45:20;19.97;;;10.87;;
5795;SDS011;2924;51.458;7.046;2023-04-06T10:47:47;22.10;;;10.97;;
5795;SDS011;2924;51.458;7.046;2023-04-06T10:50:14;16.70;;;11.30;;
5795;SDS011;2924;51.458;7.046;2023-04-06T10:52:41;19.53;;;11.67;;
5795;SDS011;2924;51.458;7.046;2023-04-06T10:55:08;16.50;;;11.50;;
5795;SDS011;2924;51.458;7.046;2023-04-06T10:57:37;23.67;;;11.57;;
5795;SDS011;2924;51.458;7.046;2023-04-06T11:00:04;20.77;;;12.13;;
5795;SDS011;2924;51.458;7.046;2023-04-06T11:02:30;21.33;;;12.90;;
5795;SDS011;2924;51.458;7.046;2023-04-06T11:04:58;19.40;;;12.20;;
5795;SDS011;2924;51.458;7.046;2023-04-06T11:07:27;19.10;;;13.40;;
5795;SDS011;2924;51.458;7.046;2023-04-06T11:09:54;21.23;;;12.60;;
5795;SDS011;2924;51.458;7.046;2023-04-06T11:12:24;22.37;;;12.43;;
5795;SDS011;2924;51.458;7.046;2023-04-06T11:14:54;17.60;;;12.80;;
5795;SDS011;2924;51.458;7.046;2023-04-06T11:17:35;15.33;;;11.43;;
5795;SDS011;2924;51.458;7.046;2023-04-06T11:20:03;21.17;;;12.90;;
5795;SDS011;2924;51.458;7.046;2023-04-06T11:22:30;18.20;;;12.33;;
5795;SDS011;2924;51.458;7.046;2023-04-06T11:25:05;25.50;;;14.10;;
5795;SDS011;2924;51.458;7.046;2023-04-06T11:27:32;20.60;;;12.33;;
5795;SDS011;2924;51.458;7.046;2023-04-06T11:30:01;18.63;;;12.60;;
5795;SDS011;2924;51.458;7.046;2023-04-06T11:32:27;18.70;;;11.70;;
5795;SDS011;2924;51.458;7.046;2023-04-06T11:34:53;20.37;;;12.50;;
5795;SDS011;2924;51.458;7.046;2023-04-06T11:37:18;18.63;;;12.13;;
5795;SDS011;2924;51.458;7.046;2023-04-06T11:39:48;19.47;;;11.83;;
5795;SDS011;2924;51.458;7.046;2023-04-06T11:42:25;18.07;;;12.07;;
5795;SDS011;2924;51.458;7.046;2023-04-06T11:44:57;20.80;;;11.47;;
5795;SDS011;2924;51.458;7.046;2023-04-06T11:47:27;19.20;;;11.60;;
5795;SDS011;2924;51.458;7.046;2023-04-06T11:49:54;24.43;;;12.63;;
5795;SDS011;2924;51.458;7.046;2023-04-06T11:52:24;27.83;;;12.50;;
5795;SDS011;2924;51.458;7.046;2023-04-06T11:54:51;21.67;;;12.63;;
5795;SDS011;2924;51.458;7.046;2023-04-06T11:57:18;18.70;;;12.50;;
5795;SDS011;2924;51.458;7.046;2023-04-06T11:59:45;23.47;;;13.93;;
5795;SDS011;2924;51.458;7.046;2023-04-06T12:02:11;19.43;;;11.40;;
5795;SDS011;2924;51.458;7.046;2023-04-06T12:04:37;20.30;;;11.57;;
5795;SDS011;2924;51.458;7.046;2023-04-06T12:07:03;24.70;;;12.83;;
5795;SDS011;2924;51.458;7.046;2023-04-06T12:09:29;17.33;;;10.70;;
5795;SDS011;2924;51.458;7.046;2023-04-06T12:11:55;19.27;;;12.43;;
5795;SDS011;2924;51.458;7.046;2023-04-06T12:14:21;26.93;;;12.37;;
5795;SDS011;2924;51.458;7.046;2023-04-06T12:16:47;20.03;;;11.23;;
5795;SDS011;2924;51.458;7.046;2023-04-06T12:19:13;17.43;;;11.30;;
5795;SDS011;2924;51.458;7.046;2023-04-06T12:21:38;18.47;;;11.53;;
5795;SDS011;2924;51.458;7.046;2023-04-06T12:24:05;17.57;;;11.37;;
5795;SDS011;2924;51.458;7.046;2023-04-06T12:26:31;23.80;;;12.17;;
5795;SDS011;2924;51.458;7.046;2023-04-06T12:28:56;25.70;;;12.30;;
5795;SDS011;2924;51.458;7.046;2023-04-06T12:31:29;19.20;;;11.93;;
5795;SDS011;2924;51.458;7.046;2023-04-06T12:33:55;21.13;;;12.57;;
5795;SDS011;2924;51.458;7.046;2023-04-06T12:36:20;23.53;;;11.83;;
5795;SDS011;2924;51.458;7.046;2023-04-06T12:38:47;20.40;;;11.47;;
5795;SDS011;2924;51.458;7.046;2023-04-06T12:41:13;17.80;;;12.20;;
5795;SDS011;2924;51.458;7.046;2023-04-06T12:43:40;18.60;;;12.70;;
5795;SDS011;2924;51.458;7.046;2023-04-06T12:46:06;17.17;;;11.50;;
5795;SDS011;2924;51.458;7.046;2023-04-06T12:48:32;30.07;;;11.17;;
5795;SDS011;2924;51.458;7.046;2023-04-06T12:50:58;24.47;;;12.53;;
5795;SDS011;2924;51.458;7.046;2023-04-06T12:53:25;22.77;;;12.43;;
5795;SDS011;2924;51.458;7.046;2023-04-06T12:55:51;17.33;;;12.30;;
5795;SDS011;2924;51.458;7.046;2023-04-06T12:58:18;18.77;;;12.20;;
5795;SDS011;2924;51.458;7.046;2023-04-06T13:00:44;20.50;;;13.10;;
5795;SDS011;2924;51.458;7.046;2023-04-06T13:03:10;20.07;;;13.13;;
5795;SDS011;2924;51.458;7.046;2023-04-06T13:05:36;17.80;;;12.60;;
5795;SDS011;2924;51.458;7.046;2023-04-06T13:08:08;19.47;;;13.07;;
5795;SDS011;2924;51.458;7.046;2023-04-06T13:10:33;21.17;;;12.40;;
5795;SDS011;2924;51.458;7.046;2023-04-06T13:12:59;20.17;;;11.77;;
5795;SDS011;2924;51.458;7.046;2023-04-06T13:15:25;22.53;;;12.70;;
5795;SDS011;2924;51.458;7.046;2023-04-06T13:17:50;20.17;;;11.30;;
5795;SDS011;2924;51.458;7.046;2023-04-06T13:20:16;22.60;;;10.90;;
5795;SDS011;2924;51.458;7.046;2023-04-06T13:22:41;13.63;;;9.90;;
5795;SDS011;2924;51.458;7.046;2023-04-06T13:25:07;15.87;;;11.10;;
5795;SDS011;2924;51.458;7.046;2023-04-06T13:27:33;21.27;;;11.20;;
5795;SDS011;2924;51.458;7.046;2023-04-06T13:30:00;28.67;;;10.40;;
5795;SDS011;2924;51.458;7.046;2023-04-06T13:32:27;16.07;;;10.97;;
5795;SDS011;2924;51.458;7.046;2023-04-06T13:34:56;24.13;;;9.90;;
5795;SDS011;2924;51.458;7.046;2023-04-06T13:37:22;19.23;;;10.40;;
5795;SDS011;2924;51.458;7.046;2023-04-06T13:39:48;20.30;;;10.37;;
5795;SDS011;2924;51.458;7.046;2023-04-06T13:42:13;16.20;;;11.00;;
5795;SDS011;2924;51.458;7.046;2023-04-06T13:44:39;16.33;;;9.40;;
5795;SDS011;2924;51.458;7.046;2023-04-06T13:47:05;17.03;;;10.73;;
5795;SDS011;2924;51.458;7.046;2023-04-06T13:49:30;17.60;;;11.30;;
5795;SDS011;2924;51.458;7.046;2023-04-06T13:51:56;14.13;;;9.60;;
5795;SDS011;2924;51.458;7.046;2023-04-06T13:54:22;23.60;;;10.20;;
5795;SDS011;2924;51.458;7.046;2023-04-06T13:56:47;16.20;;;9.80;;
5795;SDS011;2924;51.458;7.046;2023-04-06T13:59:13;25.23;;;10.20;;
5795;SDS011;2924;51.458;7.046;2023-04-06T14:01:38;14.93;;;9.83;;
5795;SDS011;2924;51.458;7.046;2023-04-06T14:04:04;14.20;;;9.97;;
5795;SDS011;2924;51.458;7.046;2023-04-06T14:06:30;14.40;;;9.67;;
5795;SDS011;2924;51.458;7.046;2023-04-06T14:08:55;15.90;;;9.93;;
5795;SDS011;2924;51.458;7.046;2023-04-06T14:11:22;19.33;;;8.83;;
5795;SDS011;2924;51.458;7.046;2023-04-06T14:13:47;17.40;;;8.97;;
5795;SDS011;2924;51.458;7.046;2023-04-06T14:16:13;18.97;;;9.97;;
5795;SDS011;2924;51.458;7.046;2023-04-06T14:18:39;14.37;;;9.50;;
5795;SDS011;2924;51.458;7.046;2023-04-06T14:21:04;12.80;;;9.30;;
5795;SDS011;2924;51.458;7.046;2023-04-06T14:23:30;14.10;;;8.40;;
5795;SDS011;2924;51.458;7.046;2023-04-06T14:26:03;13.43;;;8.83;;
5795;SDS011;2924;51.458;7.046;2023-04-06T14:28:31;12.97;;;9.00;;
5795;SDS011;2924;51.458;7.046;2023-04-06T14:31:01;12.80;;;7.77;;
5795;SDS011;2924;51.458;7.046;2023-04-06T14:33:34;14.67;;;8.60;;
5795;SDS011;2924;51.458;7.046;2023-04-06T14:36:04;16.93;;;7.87;;
5795;SDS011;2924;51.458;7.046;2023-04-06T14:38:33;13.80;;;8.10;;
5795;SDS011;2924;51.458;7.046;2023-04-06T14:41:00;10.50;;;8.00;;
5795;SDS011;2924;51.458;7.046;2023-04-06T14:43:26;10.17;;;7.60;;
5795;SDS011;2924;51.458;7.046;2023-04-06T14:45:52;8.97;;;7.57;;
5795;SDS011;2924;51.458;7.046;2023-04-06T14:48:18;13.33;;;6.93;;
5795;SDS011;2924;51.458;7.046;2023-04-06T14:50:51;9.50;;;7.67;;
5795;SDS011;2924;51.458;7.046;2023-04-06T14:53:18;8.90;;;6.60;;
5795;SDS011;2924;51.458;7.046;2023-04-06T14:55:44;9.00;;;6.43;;
5795;SDS011;2924;51.458;7.046;2023-04-06T14:58:10;21.20;;;7.20;;
5795;SDS011;2924;51.458;7.046;2023-04-06T15:00:37;8.00;;;6.00;;
5795;SDS011;2924;51.458;7.046;2023-04-06T15:03:03;10.30;;;7.07;;
5795;SDS011;2924;51.458;7.046;2023-04-06T15:05:29;9.80;;;7.00;;
5795;SDS011;2924;51.458;7.046;2023-04-06T15:07:56;11.90;;;7.07;;
5795;SDS011;2924;51.458;7.046;2023-04-06T15:10:21;10.27;;;6.93;;